Gure Gogoa — EAJC — position and weather

sailwx.info

Track history (hours):
 
Tides and Currents Weather Stations Pressure Air Temp Water Temp Dewpoint Dewpoint Depression Visibility Wind Speed Wind Dir Waves Ship Positions

Gure Gogoa

Last reported at 2015-Nov-24 02:15 UTC. Time now 2016-Feb-13 06:48 UTC.
Position N 44°20' W 001°39'.
Warning: this ship's position is months out of date.

Length 37 m.

Type: Fishing. MMSI: 224128930.

Date/timePositionNaut miles runAvg speedWind from/ knotsBaromVisibWave heightAir tempDewpointWater temp
2015-Nov-24 02:15N 44°20' W 001°39'1810.2
2015-Nov-24 00:28N 44°36' W 001°29'1 0.9
2015-Nov-23 23:33N 44°37' W 001°28'0 0.2
2015-Nov-23 22:33N 44°37' W 001°28'2 2.1
2015-Nov-23 21:33N 44°39' W 001°28'0 0.5
2015-Nov-23 20:34N 44°38' W 001°28'  
2015-Nov-19 04:21N 44°21' W 001°36'810.0
2015-Nov-19 03:33N 44°29' W 001°32'6 6.3
2015-Nov-19 02:33N 44°35' W 001°29'0 0.3
2015-Nov-19 01:33N 44°34' W 001°29'3 2.1
2015-Nov-19 00:07N 44°31' W 001°29'2 4.0
2015-Nov-18 23:29N 44°29' W 001°28'0 0.2
2015-Nov-18 22:31N 44°29' W 001°28'1 0.6
2015-Nov-18 21:17N 44°29' W 001°27'26 0.9
2015-Nov-17 16:24N 44°04' W 001°37'3 3.3
2015-Nov-17 15:33N 44°03' W 001°40'0 0.4
2015-Nov-17 14:32N 44°03' W 001°41'8 7.7
2015-Nov-17 13:32N 43°56' W 001°45'8 8.2
2015-Nov-17 12:33N 43°49' W 001°50'  
Track history (hours):
 
Tides and Currents Weather Stations Pressure Air Temp Water Temp Dewpoint Dewpoint Depression Visibility Wind Speed Wind Dir Waves Ship Positions

Gure Gogoa

Last reported at 2015-Nov-24 02:15 UTC. Time now 2016-Feb-13 06:48 UTC.
Position N 44°20' W 001°39'.
Warning: this ship's position is months out of date.

Length 37 m.

Type: Fishing. MMSI: 224128930.

Date/timePositionNaut miles runAvg speedWind from/ knotsBaromVisibWave heightAir tempDewpointWater temp
2015-Nov-24 02:15N 44°20' W 001°39'1810.2
2015-Nov-24 00:28N 44°36' W 001°29'1 0.9
2015-Nov-23 23:33N 44°37' W 001°28'0 0.2
2015-Nov-23 22:33N 44°37' W 001°28'2 2.1
2015-Nov-23 21:33N 44°39' W 001°28'0 0.5
2015-Nov-23 20:34N 44°38' W 001°28'  
2015-Nov-19 04:21N 44°21' W 001°36'810.0
2015-Nov-19 03:33N 44°29' W 001°32'6 6.3
2015-Nov-19 02:33N 44°35' W 001°29'0 0.3
2015-Nov-19 01:33N 44°34' W 001°29'3 2.1
2015-Nov-19 00:07N 44°31' W 001°29'2 4.0
2015-Nov-18 23:29N 44°29' W 001°28'0 0.2
2015-Nov-18 22:31N 44°29' W 001°28'1 0.6
2015-Nov-18 21:17N 44°29' W 001°27'26 0.9
2015-Nov-17 16:24N 44°04' W 001°37'3 3.3
2015-Nov-17 15:33N 44°03' W 001°40'0 0.4
2015-Nov-17 14:32N 44°03' W 001°41'8 7.7
2015-Nov-17 13:32N 43°56' W 001°45'8 8.2
2015-Nov-17 12:33N 43°49' W 001°50'  

Dump ship's entire track history